Gage Information Page
Francis E. Walter Reservoir, PA

Provisional Data Subject to Revision
Francis E. Walter Reservoir, PA
Amber Threshold Elevation:1392 feet
Red Threshold Elevation:1441 feet
Date (ET) Elevation (ft) Storage (ac-ft) Inflow (cfs) Outflow (cfs)
Aug 2, 2015   6:15 pm 1368.48 19942 293 298
Aug 2, 2015   5:15 pm 1368.48 19942 303 298
Aug 2, 2015   4:15 pm 1368.49 19947 321 298
Aug 2, 2015   3:15 pm 1368.49 19947 339 302
Aug 2, 2015   2:15 pm 1368.50 19952 357 302
Aug 2, 2015   1:15 pm 1368.50 19952 374 302
Aug 2, 2015 12:15 pm 1368.55 19977 404 862
Aug 2, 2015 11:15 am 1368.62 20012 412 862
Aug 2, 2015 10:15 am 1368.70 20051 411 862
Aug 2, 2015   9:15 am 1368.78 20091 419 862
Aug 2, 2015   8:15 am 1368.86 20131 438 862
Aug 2, 2015   7:15 am 1368.93 20165 420 862
Aug 2, 2015   6:15 am 1369.01 20205 409 862
Aug 2, 2015   5:15 am 1369.08 20240 391 862
Aug 2, 2015   4:15 am 1369.16 20280 381 862
Aug 2, 2015   3:15 am 1369.22 20309 356 862
Aug 2, 2015   2:15 am 1369.30 20349 345 862
Aug 2, 2015   1:15 am 1369.37 20384 327 853
Aug 2, 2015 12:15 am 1369.40 20399 298 298
Aug 1, 2015 11:15 pm 1369.40 20399 298 298
Aug 1, 2015 10:15 pm 1369.40 20399 299 298
Aug 1, 2015   9:15 pm 1369.40 20399 299 298
Aug 1, 2015   8:15 pm 1369.40 20399 289 298
Aug 1, 2015   7:15 pm 1369.40 20399 310 298
Report Generated Aug 02, 2015 07:24 PM

NWS Web Info
USGS Web Info